sensor_id;sensor_type;location;lat;lon;timestamp;P1;durP1;ratioP1;P2;durP2;ratioP2
16854;SDS011;8543;54.522;18.550;2023-09-12T00:01:59;14.20;;;12.70;;
16854;SDS011;8543;54.522;18.550;2023-09-12T00:04:25;14.90;;;13.30;;
16854;SDS011;8543;54.522;18.550;2023-09-12T00:06:50;15.20;;;13.50;;
16854;SDS011;8543;54.522;18.550;2023-09-12T00:09:15;14.50;;;13.00;;
16854;SDS011;8543;54.522;18.550;2023-09-12T00:11:41;15.60;;;14.00;;
16854;SDS011;8543;54.522;18.550;2023-09-12T00:14:08;13.90;;;12.50;;
16854;SDS011;8543;54.522;18.550;2023-09-12T00:16:34;16.00;;;14.20;;
16854;SDS011;8543;54.522;18.550;2023-09-12T00:18:59;16.40;;;14.70;;
16854;SDS011;8543;54.522;18.550;2023-09-12T00:21:24;14.80;;;13.20;;
16854;SDS011;8543;54.522;18.550;2023-09-12T00:23:50;15.60;;;13.90;;
16854;SDS011;8543;54.522;18.550;2023-09-12T00:26:15;17.60;;;13.90;;
16854;SDS011;8543;54.522;18.550;2023-09-12T00:28:40;15.50;;;13.90;;
16854;SDS011;8543;54.522;18.550;2023-09-12T00:31:06;14.90;;;12.80;;
16854;SDS011;8543;54.522;18.550;2023-09-12T00:33:32;17.00;;;14.70;;
16854;SDS011;8543;54.522;18.550;2023-09-12T00:35:57;16.70;;;14.50;;
16854;SDS011;8543;54.522;18.550;2023-09-12T00:38:23;17.20;;;14.80;;
16854;SDS011;8543;54.522;18.550;2023-09-12T00:40:48;18.60;;;16.70;;
16854;SDS011;8543;54.522;18.550;2023-09-12T00:43:15;17.40;;;15.60;;
16854;SDS011;8543;54.522;18.550;2023-09-12T00:45:41;19.00;;;15.80;;
16854;SDS011;8543;54.522;18.550;2023-09-12T00:48:06;17.80;;;14.40;;
16854;SDS011;8543;54.522;18.550;2023-09-12T00:50:32;16.40;;;14.40;;
16854;SDS011;8543;54.522;18.550;2023-09-12T00:52:58;15.80;;;14.20;;
16854;SDS011;8543;54.522;18.550;2023-09-12T00:55:24;16.50;;;14.80;;
16854;SDS011;8543;54.522;18.550;2023-09-12T00:57:50;16.10;;;14.50;;
16854;SDS011;8543;54.522;18.550;2023-09-12T01:00:16;18.90;;;15.40;;
16854;SDS011;8543;54.522;18.550;2023-09-12T01:02:42;17.40;;;15.40;;
16854;SDS011;8543;54.522;18.550;2023-09-12T01:05:09;16.00;;;14.30;;
16854;SDS011;8543;54.522;18.550;2023-09-12T01:07:36;15.70;;;14.10;;
16854;SDS011;8543;54.522;18.550;2023-09-12T01:10:02;17.60;;;15.30;;
16854;SDS011;8543;54.522;18.550;2023-09-12T01:12:29;16.10;;;14.40;;
16854;SDS011;8543;54.522;18.550;2023-09-12T01:14:54;17.50;;;14.50;;
16854;SDS011;8543;54.522;18.550;2023-09-12T01:17:20;16.70;;;14.40;;
16854;SDS011;8543;54.522;18.550;2023-09-12T01:19:46;17.00;;;14.40;;
16854;SDS011;8543;54.522;18.550;2023-09-12T01:27:35;16.10;;;13.60;;
16854;SDS011;8543;54.522;18.550;2023-09-12T01:30:04;14.90;;;13.40;;
16854;SDS011;8543;54.522;18.550;2023-09-12T01:32:31;16.00;;;14.20;;
16854;SDS011;8543;54.522;18.550;2023-09-12T01:34:58;15.60;;;12.90;;
16854;SDS011;8543;54.522;18.550;2023-09-12T01:37:23;13.70;;;12.30;;
16854;SDS011;8543;54.522;18.550;2023-09-12T01:39:48;14.90;;;13.40;;
16854;SDS011;8543;54.522;18.550;2023-09-12T01:42:17;14.00;;;12.60;;
16854;SDS011;8543;54.522;18.550;2023-09-12T01:44:45;14.50;;;13.00;;
16854;SDS011;8543;54.522;18.550;2023-09-12T01:47:12;13.50;;;12.00;;
16854;SDS011;8543;54.522;18.550;2023-09-12T01:49:39;14.50;;;12.20;;
16854;SDS011;8543;54.522;18.550;2023-09-12T01:52:06;13.30;;;12.00;;
16854;SDS011;8543;54.522;18.550;2023-09-12T01:54:32;13.50;;;12.20;;
16854;SDS011;8543;54.522;18.550;2023-09-12T01:56:59;15.60;;;12.20;;
16854;SDS011;8543;54.522;18.550;2023-09-12T01:59:24;17.00;;;13.30;;
16854;SDS011;8543;54.522;18.550;2023-09-12T02:01:50;14.60;;;12.90;;
16854;SDS011;8543;54.522;18.550;2023-09-12T02:04:16;14.40;;;12.20;;
16854;SDS011;8543;54.522;18.550;2023-09-12T02:06:41;12.60;;;11.30;;
16854;SDS011;8543;54.522;18.550;2023-09-12T02:09:07;13.00;;;11.60;;
16854;SDS011;8543;54.522;18.550;2023-09-12T02:11:32;13.60;;;12.20;;
16854;SDS011;8543;54.522;18.550;2023-09-12T02:13:58;12.90;;;11.10;;
16854;SDS011;8543;54.522;18.550;2023-09-12T02:16:23;14.00;;;12.40;;
16854;SDS011;8543;54.522;18.550;2023-09-12T02:18:48;13.30;;;11.40;;
16854;SDS011;8543;54.522;18.550;2023-09-12T02:21:14;13.30;;;12.00;;
16854;SDS011;8543;54.522;18.550;2023-09-12T02:23:41;12.70;;;11.40;;
16854;SDS011;8543;54.522;18.550;2023-09-12T02:26:07;14.50;;;12.00;;
16854;SDS011;8543;54.522;18.550;2023-09-12T02:28:32;12.80;;;11.50;;
16854;SDS011;8543;54.522;18.550;2023-09-12T02:30:58;12.70;;;11.40;;
16854;SDS011;8543;54.522;18.550;2023-09-12T02:33:23;12.10;;;10.90;;
16854;SDS011;8543;54.522;18.550;2023-09-12T02:35:48;11.30;;;10.20;;
16854;SDS011;8543;54.522;18.550;2023-09-12T02:38:14;13.50;;;10.80;;
16854;SDS011;8543;54.522;18.550;2023-09-12T02:40:39;11.50;;;10.40;;
16854;SDS011;8543;54.522;18.550;2023-09-12T02:43:04;12.00;;;10.80;;
16854;SDS011;8543;54.522;18.550;2023-09-12T02:45:30;12.00;;;10.80;;
16854;SDS011;8543;54.522;18.550;2023-09-12T02:47:55;12.50;;;11.20;;
16854;SDS011;8543;54.522;18.550;2023-09-12T02:50:21;13.20;;;11.00;;
16854;SDS011;8543;54.522;18.550;2023-09-12T02:52:46;14.90;;;12.50;;
16854;SDS011;8543;54.522;18.550;2023-09-12T02:55:12;15.70;;;11.10;;
16854;SDS011;8543;54.522;18.550;2023-09-12T02:57:37;11.60;;;10.40;;
16854;SDS011;8543;54.522;18.550;2023-09-12T03:00:03;11.80;;;9.90;;
16854;SDS011;8543;54.522;18.550;2023-09-12T03:02:32;12.60;;;10.50;;
16854;SDS011;8543;54.522;18.550;2023-09-12T03:04:57;11.90;;;10.80;;
16854;SDS011;8543;54.522;18.550;2023-09-12T03:07:23;12.90;;;11.50;;
16854;SDS011;8543;54.522;18.550;2023-09-12T03:09:48;11.90;;;10.60;;
16854;SDS011;8543;54.522;18.550;2023-09-12T03:12:15;12.10;;;10.90;;
16854;SDS011;8543;54.522;18.550;2023-09-12T03:14:40;12.10;;;10.70;;
16854;SDS011;8543;54.522;18.550;2023-09-12T03:17:06;12.20;;;10.80;;
16854;SDS011;8543;54.522;18.550;2023-09-12T03:19:31;12.80;;;11.50;;
16854;SDS011;8543;54.522;18.550;2023-09-12T03:21:56;12.60;;;11.20;;
16854;SDS011;8543;54.522;18.550;2023-09-12T03:24:22;11.90;;;10.60;;
16854;SDS011;8543;54.522;18.550;2023-09-12T03:26:49;11.80;;;10.60;;
16854;SDS011;8543;54.522;18.550;2023-09-12T03:29:15;11.70;;;10.40;;
16854;SDS011;8543;54.522;18.550;2023-09-12T03:31:41;13.10;;;10.10;;
16854;SDS011;8543;54.522;18.550;2023-09-12T03:34:06;11.10;;;9.90;;
16854;SDS011;8543;54.522;18.550;2023-09-12T03:36:32;11.20;;;10.10;;
16854;SDS011;8543;54.522;18.550;2023-09-12T03:38:57;13.40;;;10.80;;
16854;SDS011;8543;54.522;18.550;2023-09-12T03:41:22;11.70;;;10.30;;
16854;SDS011;8543;54.522;18.550;2023-09-12T03:43:52;12.60;;;10.30;;
16854;SDS011;8543;54.522;18.550;2023-09-12T03:46:18;12.20;;;10.80;;
16854;SDS011;8543;54.522;18.550;2023-09-12T03:48:43;10.70;;;9.60;;
16854;SDS011;8543;54.522;18.550;2023-09-12T03:51:09;11.30;;;10.10;;
16854;SDS011;8543;54.522;18.550;2023-09-12T03:53:34;11.70;;;10.50;;
16854;SDS011;8543;54.522;18.550;2023-09-12T03:55:59;16.10;;;10.60;;
16854;SDS011;8543;54.522;18.550;2023-09-12T03:58:25;11.70;;;10.60;;
16854;SDS011;8543;54.522;18.550;2023-09-12T04:00:50;12.30;;;10.40;;
16854;SDS011;8543;54.522;18.550;2023-09-12T04:03:16;12.10;;;10.70;;
16854;SDS011;8543;54.522;18.550;2023-09-12T04:05:41;12.10;;;10.90;;
16854;SDS011;8543;54.522;18.550;2023-09-12T04:08:07;11.50;;;10.30;;
16854;SDS011;8543;54.522;18.550;2023-09-12T04:10:32;11.90;;;10.70;;
16854;SDS011;8543;54.522;18.550;2023-09-12T04:12:57;12.50;;;11.00;;
16854;SDS011;8543;54.522;18.550;2023-09-12T04:15:23;12.30;;;11.00;;
16854;SDS011;8543;54.522;18.550;2023-09-12T04:17:48;11.80;;;10.40;;
16854;SDS011;8543;54.522;18.550;2023-09-12T04:20:14;13.40;;;10.60;;
16854;SDS011;8543;54.522;18.550;2023-09-12T04:22:40;11.60;;;10.50;;
16854;SDS011;8543;54.522;18.550;2023-09-12T04:25:07;11.00;;;9.90;;
16854;SDS011;8543;54.522;18.550;2023-09-12T04:27:32;11.40;;;9.90;;
16854;SDS011;8543;54.522;18.550;2023-09-12T04:29:59;11.80;;;10.70;;
16854;SDS011;8543;54.522;18.550;2023-09-12T04:32:24;11.40;;;9.80;;
16854;SDS011;8543;54.522;18.550;2023-09-12T04:34:50;11.30;;;10.00;;
16854;SDS011;8543;54.522;18.550;2023-09-12T04:37:15;11.70;;;10.10;;
16854;SDS011;8543;54.522;18.550;2023-09-12T04:39:41;12.10;;;9.80;;
16854;SDS011;8543;54.522;18.550;2023-09-12T04:42:06;11.90;;;9.90;;
16854;SDS011;8543;54.522;18.550;2023-09-12T04:44:35;11.50;;;10.30;;
16854;SDS011;8543;54.522;18.550;2023-09-12T04:47:01;10.60;;;9.50;;
16854;SDS011;8543;54.522;18.550;2023-09-12T04:49:27;11.80;;;10.60;;
16854;SDS011;8543;54.522;18.550;2023-09-12T04:51:53;10.70;;;9.60;;
16854;SDS011;8543;54.522;18.550;2023-09-12T04:54:18;11.30;;;10.20;;
16854;SDS011;8543;54.522;18.550;2023-09-12T04:56:44;10.50;;;9.50;;
16854;SDS011;8543;54.522;18.550;2023-09-12T04:59:09;10.60;;;9.50;;
16854;SDS011;8543;54.522;18.550;2023-09-12T05:01:34;10.10;;;9.10;;
16854;SDS011;8543;54.522;18.550;2023-09-12T05:04:00;10.40;;;9.00;;
16854;SDS011;8543;54.522;18.550;2023-09-12T05:06:25;9.50;;;8.60;;
16854;SDS011;8543;54.522;18.550;2023-09-12T05:08:51;9.90;;;8.90;;
16854;SDS011;8543;54.522;18.550;2023-09-12T05:11:16;10.50;;;9.00;;
16854;SDS011;8543;54.522;18.550;2023-09-12T05:13:42;10.80;;;9.80;;
16854;SDS011;8543;54.522;18.550;2023-09-12T05:16:07;10.50;;;9.50;;
16854;SDS011;8543;54.522;18.550;2023-09-12T05:18:33;10.00;;;9.00;;
16854;SDS011;8543;54.522;18.550;2023-09-12T05:20:58;10.80;;;8.70;;
16854;SDS011;8543;54.522;18.550;2023-09-12T05:23:24;10.40;;;9.40;;
16854;SDS011;8543;54.522;18.550;2023-09-12T05:25:49;9.70;;;8.80;;
16854;SDS011;8543;54.522;18.550;2023-09-12T05:28:14;9.50;;;8.50;;
16854;SDS011;8543;54.522;18.550;2023-09-12T05:30:41;9.70;;;8.80;;
16854;SDS011;8543;54.522;18.550;2023-09-12T05:33:07;10.50;;;9.50;;
16854;SDS011;8543;54.522;18.550;2023-09-12T05:35:33;11.10;;;9.30;;
16854;SDS011;8543;54.522;18.550;2023-09-12T05:37:58;11.10;;;9.60;;
16854;SDS011;8543;54.522;18.550;2023-09-12T05:40:24;10.40;;;9.10;;
16854;SDS011;8543;54.522;18.550;2023-09-12T05:42:49;11.00;;;9.80;;
16854;SDS011;8543;54.522;18.550;2023-09-12T05:45:15;10.50;;;9.40;;
16854;SDS011;8543;54.522;18.550;2023-09-12T05:47:40;10.90;;;9.70;;
16854;SDS011;8543;54.522;18.550;2023-09-12T05:50:06;10.90;;;9.80;;
16854;SDS011;8543;54.522;18.550;2023-09-12T05:52:32;10.00;;;9.00;;
16854;SDS011;8543;54.522;18.550;2023-09-12T05:54:58;10.40;;;9.40;;
16854;SDS011;8543;54.522;18.550;2023-09-12T05:57:23;10.90;;;9.40;;
16854;SDS011;8543;54.522;18.550;2023-09-12T05:59:49;9.50;;;8.60;;
16854;SDS011;8543;54.522;18.550;2023-09-12T06:02:15;10.20;;;9.20;;
16854;SDS011;8543;54.522;18.550;2023-09-12T06:04:40;9.50;;;8.60;;
16854;SDS011;8543;54.522;18.550;2023-09-12T06:07:06;9.40;;;8.60;;
16854;SDS011;8543;54.522;18.550;2023-09-12T06:09:31;9.50;;;8.60;;
16854;SDS011;8543;54.522;18.550;2023-09-12T06:11:56;10.00;;;9.10;;
16854;SDS011;8543;54.522;18.550;2023-09-12T06:14:22;9.30;;;8.40;;
16854;SDS011;8543;54.522;18.550;2023-09-12T06:16:48;9.70;;;8.80;;
16854;SDS011;8543;54.522;18.550;2023-09-12T06:19:13;9.70;;;8.80;;
16854;SDS011;8543;54.522;18.550;2023-09-12T06:21:43;10.10;;;9.20;;
16854;SDS011;8543;54.522;18.550;2023-09-12T06:24:19;9.40;;;8.60;;
16854;SDS011;8543;54.522;18.550;2023-09-12T06:26:46;9.80;;;8.90;;
16854;SDS011;8543;54.522;18.550;2023-09-12T06:29:13;10.20;;;9.40;;
16854;SDS011;8543;54.522;18.550;2023-09-12T06:31:39;10.30;;;9.10;;
16854;SDS011;8543;54.522;18.550;2023-09-12T06:34:06;10.00;;;9.20;;
16854;SDS011;8543;54.522;18.550;2023-09-12T06:36:32;10.20;;;9.30;;
16854;SDS011;8543;54.522;18.550;2023-09-12T06:38:58;10.50;;;9.60;;
16854;SDS011;8543;54.522;18.550;2023-09-12T06:41:24;10.00;;;9.20;;
16854;SDS011;8543;54.522;18.550;2023-09-12T06:43:50;10.50;;;9.60;;
16854;SDS011;8543;54.522;18.550;2023-09-12T06:46:15;10.70;;;9.80;;
16854;SDS011;8543;54.522;18.550;2023-09-12T06:48:45;10.80;;;9.80;;
16854;SDS011;8543;54.522;18.550;2023-09-12T06:51:11;11.00;;;10.10;;
16854;SDS011;8543;54.522;18.550;2023-09-12T06:53:36;11.30;;;10.40;;
16854;SDS011;8543;54.522;18.550;2023-09-12T06:56:03;12.90;;;11.70;;
16854;SDS011;8543;54.522;18.550;2023-09-12T06:58:29;13.40;;;12.40;;
16854;SDS011;8543;54.522;18.550;2023-09-12T07:00:54;12.90;;;11.90;;
16854;SDS011;8543;54.522;18.550;2023-09-12T07:03:20;14.50;;;13.40;;
16854;SDS011;8543;54.522;18.550;2023-09-12T07:05:46;14.10;;;13.10;;
16854;SDS011;8543;54.522;18.550;2023-09-12T07:08:11;14.60;;;13.60;;
16854;SDS011;8543;54.522;18.550;2023-09-12T07:10:37;15.70;;;14.60;;
16854;SDS011;8543;54.522;18.550;2023-09-12T07:13:10;15.90;;;14.70;;
16854;SDS011;8543;54.522;18.550;2023-09-12T07:15:35;16.20;;;15.10;;
16854;SDS011;8543;54.522;18.550;2023-09-12T07:18:01;16.90;;;15.80;;
16854;SDS011;8543;54.522;18.550;2023-09-12T07:20:27;16.90;;;15.80;;
16854;SDS011;8543;54.522;18.550;2023-09-12T07:22:53;17.40;;;16.10;;
16854;SDS011;8543;54.522;18.550;2023-09-12T07:25:18;17.30;;;16.10;;
16854;SDS011;8543;54.522;18.550;2023-09-12T07:27:46;16.90;;;15.70;;
16854;SDS011;8543;54.522;18.550;2023-09-12T07:30:12;16.50;;;15.20;;
16854;SDS011;8543;54.522;18.550;2023-09-12T07:32:37;17.20;;;15.70;;
16854;SDS011;8543;54.522;18.550;2023-09-12T07:35:03;17.30;;;16.00;;
16854;SDS011;8543;54.522;18.550;2023-09-12T07:37:28;15.70;;;14.60;;
16854;SDS011;8543;54.522;18.550;2023-09-12T07:39:54;17.80;;;15.90;;
16854;SDS011;8543;54.522;18.550;2023-09-12T07:42:23;18.00;;;16.10;;
16854;SDS011;8543;54.522;18.550;2023-09-12T07:44:49;16.30;;;14.60;;
16854;SDS011;8543;54.522;18.550;2023-09-12T07:47:14;17.10;;;15.50;;
16854;SDS011;8543;54.522;18.550;2023-09-12T07:49:40;18.00;;;16.10;;
16854;SDS011;8543;54.522;18.550;2023-09-12T07:52:06;17.00;;;15.20;;
16854;SDS011;8543;54.522;18.550;2023-09-12T07:54:32;16.70;;;15.20;;
16854;SDS011;8543;54.522;18.550;2023-09-12T07:56:57;18.50;;;16.10;;
16854;SDS011;8543;54.522;18.550;2023-09-12T07:59:24;19.70;;;16.50;;
16854;SDS011;8543;54.522;18.550;2023-09-12T08:01:50;17.40;;;15.70;;
16854;SDS011;8543;54.522;18.550;2023-09-12T08:04:16;18.70;;;16.70;;
16854;SDS011;8543;54.522;18.550;2023-09-12T08:06:42;21.90;;;16.70;;
16854;SDS011;8543;54.522;18.550;2023-09-12T08:09:08;18.30;;;16.30;;
16854;SDS011;8543;54.522;18.550;2023-09-12T08:11:35;20.20;;;16.80;;
16854;SDS011;8543;54.522;18.550;2023-09-12T08:14:00;17.10;;;15.30;;
16854;SDS011;8543;54.522;18.550;2023-09-12T08:16:25;17.10;;;15.50;;
16854;SDS011;8543;54.522;18.550;2023-09-12T08:18:51;16.40;;;14.40;;
16854;SDS011;8543;54.522;18.550;2023-09-12T08:21:16;17.60;;;12.90;;
16854;SDS011;8543;54.522;18.550;2023-09-12T08:23:42;15.30;;;13.00;;
16854;SDS011;8543;54.522;18.550;2023-09-12T08:26:07;19.10;;;12.70;;
16854;SDS011;8543;54.522;18.550;2023-09-12T08:28:34;19.90;;;13.20;;
16854;SDS011;8543;54.522;18.550;2023-09-12T08:31:00;18.50;;;13.20;;
16854;SDS011;8543;54.522;18.550;2023-09-12T08:33:25;18.90;;;12.80;;
16854;SDS011;8543;54.522;18.550;2023-09-12T08:35:51;15.20;;;12.20;;
16854;SDS011;8543;54.522;18.550;2023-09-12T08:38:16;20.50;;;13.20;;
16854;SDS011;8543;54.522;18.550;2023-09-12T08:40:47;17.70;;;12.60;;
16854;SDS011;8543;54.522;18.550;2023-09-12T08:43:16;14.00;;;12.40;;
16854;SDS011;8543;54.522;18.550;2023-09-12T08:45:42;16.60;;;12.90;;
16854;SDS011;8543;54.522;18.550;2023-09-12T08:48:11;17.30;;;13.20;;
16854;SDS011;8543;54.522;18.550;2023-09-12T08:50:37;21.10;;;13.80;;
16854;SDS011;8543;54.522;18.550;2023-09-12T08:53:03;17.50;;;14.20;;
16854;SDS011;8543;54.522;18.550;2023-09-12T08:55:29;18.10;;;14.10;;
16854;SDS011;8543;54.522;18.550;2023-09-12T08:57:55;19.30;;;13.70;;
16854;SDS011;8543;54.522;18.550;2023-09-12T09:00:21;18.10;;;14.30;;
16854;SDS011;8543;54.522;18.550;2023-09-12T09:02:47;21.60;;;14.90;;
16854;SDS011;8543;54.522;18.550;2023-09-12T09:05:14;21.90;;;14.60;;
16854;SDS011;8543;54.522;18.550;2023-09-12T09:07:40;21.50;;;14.10;;
16854;SDS011;8543;54.522;18.550;2023-09-12T09:10:07;20.50;;;13.60;;
16854;SDS011;8543;54.522;18.550;2023-09-12T09:12:35;20.80;;;13.50;;
16854;SDS011;8543;54.522;18.550;2023-09-12T09:17:49;20.50;;;14.10;;
16854;SDS011;8543;54.522;18.550;2023-09-12T09:20:31;20.90;;;14.60;;
16854;SDS011;8543;54.522;18.550;2023-09-12T09:23:06;21.40;;;15.00;;
16854;SDS011;8543;54.522;18.550;2023-09-12T09:25:36;19.00;;;13.90;;
16854;SDS011;8543;54.522;18.550;2023-09-12T09:28:05;17.80;;;12.80;;
16854;SDS011;8543;54.522;18.550;2023-09-12T09:30:44;19.20;;;13.60;;
16854;SDS011;8543;54.522;18.550;2023-09-12T09:33:11;17.70;;;13.80;;
16854;SDS011;8543;54.522;18.550;2023-09-12T09:35:38;21.20;;;14.10;;
16854;SDS011;8543;54.522;18.550;2023-09-12T09:38:06;18.70;;;14.50;;
16854;SDS011;8543;54.522;18.550;2023-09-12T09:40:33;18.50;;;14.10;;
16854;SDS011;8543;54.522;18.550;2023-09-12T09:42:59;18.00;;;14.10;;
16854;SDS011;8543;54.522;18.550;2023-09-12T09:45:29;21.90;;;15.50;;
16854;SDS011;8543;54.522;18.550;2023-09-12T09:47:59;22.80;;;15.00;;
16854;SDS011;8543;54.522;18.550;2023-09-12T09:50:29;21.90;;;15.10;;
16854;SDS011;8543;54.522;18.550;2023-09-12T09:52:55;19.40;;;15.50;;
16854;SDS011;8543;54.522;18.550;2023-09-12T09:55:22;21.10;;;14.70;;
16854;SDS011;8543;54.522;18.550;2023-09-12T09:57:48;21.10;;;15.60;;
16854;SDS011;8543;54.522;18.550;2023-09-12T10:00:17;25.10;;;15.90;;
16854;SDS011;8543;54.522;18.550;2023-09-12T10:02:43;21.40;;;14.80;;
16854;SDS011;8543;54.522;18.550;2023-09-12T10:05:10;15.60;;;13.80;;
16854;SDS011;8543;54.522;18.550;2023-09-12T10:07:37;18.50;;;14.30;;
16854;SDS011;8543;54.522;18.550;2023-09-12T10:10:03;16.70;;;14.60;;
16854;SDS011;8543;54.522;18.550;2023-09-12T10:12:33;18.90;;;14.70;;
16854;SDS011;8543;54.522;18.550;2023-09-12T10:15:00;20.10;;;14.60;;
16854;SDS011;8543;54.522;18.550;2023-09-12T10:17:29;19.00;;;14.30;;
16854;SDS011;8543;54.522;18.550;2023-09-12T10:20:00;18.40;;;14.90;;
16854;SDS011;8543;54.522;18.550;2023-09-12T10:22:37;16.90;;;13.60;;
16854;SDS011;8543;54.522;18.550;2023-09-12T10:25:06;18.60;;;14.00;;
16854;SDS011;8543;54.522;18.550;2023-09-12T10:27:32;17.40;;;15.60;;
16854;SDS011;8543;54.522;18.550;2023-09-12T10:29:58;17.40;;;14.80;;
16854;SDS011;8543;54.522;18.550;2023-09-12T10:32:25;17.90;;;16.20;;
16854;SDS011;8543;54.522;18.550;2023-09-12T10:34:54;17.50;;;14.30;;
16854;SDS011;8543;54.522;18.550;2023-09-12T10:37:23;16.80;;;15.20;;
16854;SDS011;8543;54.522;18.550;2023-09-12T10:39:51;17.60;;;16.00;;
16854;SDS011;8543;54.522;18.550;2023-09-12T10:42:18;16.60;;;14.00;;
16854;SDS011;8543;54.522;18.550;2023-09-12T10:44:45;17.60;;;14.90;;
16854;SDS011;8543;54.522;18.550;2023-09-12T10:47:11;17.40;;;15.50;;
16854;SDS011;8543;54.522;18.550;2023-09-12T10:49:37;18.10;;;15.80;;
16854;SDS011;8543;54.522;18.550;2023-09-12T10:52:03;17.00;;;15.20;;
16854;SDS011;8543;54.522;18.550;2023-09-12T10:54:38;17.00;;;15.30;;
16854;SDS011;8543;54.522;18.550;2023-09-12T10:57:05;17.90;;;16.10;;
16854;SDS011;8543;54.522;18.550;2023-09-12T10:59:32;16.20;;;14.60;;
16854;SDS011;8543;54.522;18.550;2023-09-12T11:05:05;16.10;;;13.70;;
16854;SDS011;8543;54.522;18.550;2023-09-12T11:12:38;15.20;;;13.70;;
16854;SDS011;8543;54.522;18.550;2023-09-12T11:15:03;17.90;;;13.80;;
16854;SDS011;8543;54.522;18.550;2023-09-12T11:17:40;17.00;;;15.20;;
16854;SDS011;8543;54.522;18.550;2023-09-12T11:20:07;14.90;;;13.60;;
16854;SDS011;8543;54.522;18.550;2023-09-12T11:22:45;17.30;;;15.50;;
16854;SDS011;8543;54.522;18.550;2023-09-12T11:30:16;15.60;;;14.10;;
16854;SDS011;8543;54.522;18.550;2023-09-12T11:32:43;15.00;;;13.40;;
16854;SDS011;8543;54.522;18.550;2023-09-12T11:35:11;15.30;;;13.70;;
16854;SDS011;8543;54.522;18.550;2023-09-12T11:37:36;17.50;;;15.50;;
16854;SDS011;8543;54.522;18.550;2023-09-12T11:40:14;17.00;;;15.30;;
16854;SDS011;8543;54.522;18.550;2023-09-12T11:42:41;16.50;;;14.80;;
16854;SDS011;8543;54.522;18.550;2023-09-12T11:45:08;15.90;;;14.40;;
16854;SDS011;8543;54.522;18.550;2023-09-12T11:47:34;18.00;;;15.70;;
16854;SDS011;8543;54.522;18.550;2023-09-12T11:49:59;16.30;;;14.60;;
16854;SDS011;8543;54.522;18.550;2023-09-12T11:52:25;15.80;;;14.20;;
16854;SDS011;8543;54.522;18.550;2023-09-12T11:54:50;15.90;;;13.70;;
16854;SDS011;8543;54.522;18.550;2023-09-12T11:57:16;14.70;;;13.20;;
16854;SDS011;8543;54.522;18.550;2023-09-12T11:59:44;14.90;;;13.40;;
16854;SDS011;8543;54.522;18.550;2023-09-12T12:02:13;13.30;;;11.90;;
16854;SDS011;8543;54.522;18.550;2023-09-12T12:04:39;14.00;;;12.40;;
16854;SDS011;8543;54.522;18.550;2023-09-12T12:07:05;15.80;;;12.40;;
16854;SDS011;8543;54.522;18.550;2023-09-12T12:09:31;16.30;;;13.70;;
16854;SDS011;8543;54.522;18.550;2023-09-12T12:12:03;13.80;;;12.00;;
16854;SDS011;8543;54.522;18.550;2023-09-12T12:14:30;16.20;;;13.40;;
16854;SDS011;8543;54.522;18.550;2023-09-12T12:17:04;13.40;;;12.00;;
16854;SDS011;8543;54.522;18.550;2023-09-12T12:19:31;15.80;;;13.80;;
16854;SDS011;8543;54.522;18.550;2023-09-12T12:21:56;16.50;;;14.80;;
16854;SDS011;8543;54.522;18.550;2023-09-12T12:24:22;14.20;;;12.70;;
16854;SDS011;8543;54.522;18.550;2023-09-12T12:26:47;14.70;;;13.30;;
16854;SDS011;8543;54.522;18.550;2023-09-12T12:29:13;16.10;;;14.40;;
16854;SDS011;8543;54.522;18.550;2023-09-12T12:31:38;15.30;;;13.70;;
16854;SDS011;8543;54.522;18.550;2023-09-12T12:34:04;17.10;;;14.00;;
16854;SDS011;8543;54.522;18.550;2023-09-12T12:36:30;15.10;;;13.50;;
16854;SDS011;8543;54.522;18.550;2023-09-12T12:38:56;14.40;;;13.10;;
16854;SDS011;8543;54.522;18.550;2023-09-12T12:41:22;14.00;;;12.30;;
16854;SDS011;8543;54.522;18.550;2023-09-12T12:43:50;13.60;;;12.20;;
16854;SDS011;8543;54.522;18.550;2023-09-12T12:46:20;13.80;;;12.50;;
16854;SDS011;8543;54.522;18.550;2023-09-12T12:48:46;14.10;;;12.80;;
16854;SDS011;8543;54.522;18.550;2023-09-12T12:51:16;12.30;;;10.80;;
16854;SDS011;8543;54.522;18.550;2023-09-12T12:53:44;13.10;;;11.90;;
16854;SDS011;8543;54.522;18.550;2023-09-12T12:56:28;14.60;;;12.70;;
16854;SDS011;8543;54.522;18.550;2023-09-12T12:58:55;16.60;;;14.10;;
16854;SDS011;8543;54.522;18.550;2023-09-12T13:01:27;14.90;;;12.90;;
16854;SDS011;8543;54.522;18.550;2023-09-12T13:03:52;14.30;;;12.80;;
16854;SDS011;8543;54.522;18.550;2023-09-12T13:06:19;14.50;;;13.10;;
16854;SDS011;8543;54.522;18.550;2023-09-12T13:08:46;14.80;;;13.00;;
16854;SDS011;8543;54.522;18.550;2023-09-12T13:11:13;13.60;;;12.20;;
16854;SDS011;8543;54.522;18.550;2023-09-12T13:13:39;14.60;;;13.10;;
16854;SDS011;8543;54.522;18.550;2023-09-12T13:16:05;14.50;;;13.00;;
16854;SDS011;8543;54.522;18.550;2023-09-12T13:18:34;14.00;;;12.50;;
16854;SDS011;8543;54.522;18.550;2023-09-12T13:21:00;14.10;;;12.20;;
16854;SDS011;8543;54.522;18.550;2023-09-12T13:23:26;14.20;;;12.70;;
16854;SDS011;8543;54.522;18.550;2023-09-12T13:25:52;16.90;;;12.80;;
16854;SDS011;8543;54.522;18.550;2023-09-12T13:28:17;15.20;;;13.80;;
16854;SDS011;8543;54.522;18.550;2023-09-12T13:30:43;14.40;;;13.00;;
16854;SDS011;8543;54.522;18.550;2023-09-12T13:33:10;14.90;;;13.40;;
16854;SDS011;8543;54.522;18.550;2023-09-12T13:35:36;13.30;;;12.00;;
16854;SDS011;8543;54.522;18.550;2023-09-12T13:38:02;15.50;;;13.80;;
16854;SDS011;8543;54.522;18.550;2023-09-12T13:40:34;15.10;;;12.50;;
16854;SDS011;8543;54.522;18.550;2023-09-12T13:43:01;14.70;;;13.30;;
16854;SDS011;8543;54.522;18.550;2023-09-12T13:45:27;14.40;;;12.90;;
16854;SDS011;8543;54.522;18.550;2023-09-12T13:47:53;14.10;;;12.60;;
16854;SDS011;8543;54.522;18.550;2023-09-12T13:50:18;14.10;;;12.70;;
16854;SDS011;8543;54.522;18.550;2023-09-12T13:52:44;14.40;;;12.90;;
16854;SDS011;8543;54.522;18.550;2023-09-12T13:55:10;13.10;;;11.80;;
16854;SDS011;8543;54.522;18.550;2023-09-12T13:57:39;14.50;;;13.10;;
16854;SDS011;8543;54.522;18.550;2023-09-12T14:00:04;14.70;;;13.20;;
16854;SDS011;8543;54.522;18.550;2023-09-12T14:02:31;16.10;;;13.90;;
16854;SDS011;8543;54.522;18.550;2023-09-12T14:04:57;15.00;;;12.20;;
16854;SDS011;8543;54.522;18.550;2023-09-12T14:07:23;14.30;;;12.70;;
16854;SDS011;8543;54.522;18.550;2023-09-12T14:09:48;13.30;;;12.00;;
16854;SDS011;8543;54.522;18.550;2023-09-12T14:12:15;14.80;;;13.30;;
16854;SDS011;8543;54.522;18.550;2023-09-12T14:14:40;15.30;;;13.80;;
16854;SDS011;8543;54.522;18.550;2023-09-12T14:17:06;13.90;;;12.40;;
16854;SDS011;8543;54.522;18.550;2023-09-12T14:19:31;16.40;;;13.20;;
16854;SDS011;8543;54.522;18.550;2023-09-12T14:21:57;13.70;;;12.20;;
16854;SDS011;8543;54.522;18.550;2023-09-12T14:24:22;13.00;;;11.70;;
16854;SDS011;8543;54.522;18.550;2023-09-12T14:26:48;13.90;;;12.50;;
16854;SDS011;8543;54.522;18.550;2023-09-12T14:29:14;13.00;;;11.20;;
16854;SDS011;8543;54.522;18.550;2023-09-12T14:31:40;12.80;;;11.60;;
16854;SDS011;8543;54.522;18.550;2023-09-12T14:34:14;13.30;;;11.90;;
16854;SDS011;8543;54.522;18.550;2023-09-12T14:36:40;13.40;;;11.90;;
16854;SDS011;8543;54.522;18.550;2023-09-12T14:39:05;12.30;;;11.10;;
16854;SDS011;8543;54.522;18.550;2023-09-12T14:41:31;11.20;;;10.10;;